createdAt,value
2023-04-15T00:01:12.154Z,93683.69
2023-04-15T00:03:39.398Z,93677.06
2023-04-15T00:06:06.273Z,93679.44
2023-04-15T00:08:33.339Z,93678.25
2023-04-15T00:11:05.869Z,93669.03
2023-04-15T00:13:35.527Z,93665.69
2023-04-15T00:16:02.712Z,93671.38
2023-04-15T00:18:32.762Z,93666.16
2023-04-15T00:20:59.581Z,93664.06
2023-04-15T00:23:27.020Z,93665.22
2023-04-15T00:25:53.712Z,93662.88
2023-04-15T00:28:21.162Z,93668.56
2023-04-15T00:30:47.863Z,93662.88
2023-04-15T00:33:16.547Z,93662.16
2023-04-15T00:35:43.310Z,93670.44
2023-04-15T00:38:10.084Z,93663.34
2023-04-15T00:40:36.822Z,93662.16
2023-04-15T00:43:04.304Z,93655.03
2023-04-15T00:45:30.994Z,93657.66
2023-04-15T00:47:58.793Z,93658.16
2023-04-15T00:50:25.513Z,93658.38
2023-04-15T00:52:52.121Z,93653.84
2023-04-15T00:55:19.345Z,93647.91
2023-04-15T00:57:46.550Z,93655.53
2023-04-15T01:00:13.806Z,93657.88
2023-04-15T01:02:41.159Z,93651.25
2023-04-15T01:05:08.637Z,93650.06
2023-04-15T01:07:35.372Z,93655.97
2023-04-15T01:10:03.738Z,93667.13
2023-04-15T01:12:33.328Z,93660.47
2023-04-15T01:15:00.422Z,93662.88
2023-04-15T01:17:27.144Z,93666.91
2023-04-15T01:19:56.999Z,93662.38
2023-04-15T01:22:25.657Z,93661.47
2023-04-15T01:25:04.776Z,93661.47
2023-04-15T01:27:31.533Z,93651.97
2023-04-15T01:29:58.568Z,93651.25
2023-04-15T01:32:25.577Z,93653.88
2023-04-15T01:34:52.242Z,93645.09
2023-04-15T01:37:18.927Z,93644.38
2023-04-15T01:39:45.640Z,93650.78
2023-04-15T01:42:12.330Z,93646.03
2023-04-15T01:44:38.945Z,93649.16
2023-04-15T01:47:05.714Z,93655.56
2023-04-15T01:49:32.651Z,93654.13
2023-04-15T01:51:59.208Z,93653.41
2023-04-15T01:54:25.825Z,93659.09
2023-04-15T01:56:52.527Z,93655.78
2023-04-15T01:59:19.284Z,93648.66
2023-04-15T02:01:46.681Z,93650.53
2023-04-15T02:04:22.198Z,93651.50
2023-04-15T02:06:48.841Z,93650.31
2023-04-15T02:09:15.442Z,93649.59
2023-04-15T02:11:42.566Z,93651.97
2023-04-15T02:14:09.489Z,93651.72
2023-04-15T02:16:36.226Z,93654.31
2023-04-15T02:19:04.054Z,93655.97
2023-04-15T02:21:30.748Z,93653.88
2023-04-15T02:23:57.501Z,93653.88
2023-04-15T02:26:25.407Z,93660.72
2023-04-15T02:28:51.983Z,93650.56
2023-04-15T02:31:18.612Z,93653.16
2023-04-15T02:33:45.505Z,93656.47
2023-04-15T02:36:12.541Z,93654.06
2023-04-15T02:38:42.386Z,93656.22
2023-04-15T02:41:10.441Z,93656.69
2023-04-15T02:43:37.216Z,93655.03
2023-04-15T02:46:04.085Z,93658.81
2023-04-15T02:48:30.788Z,93659.53
2023-04-15T02:51:20.749Z,93659.75
2023-04-15T02:53:48.970Z,93658.34
2023-04-15T02:56:17.221Z,93663.31
2023-04-15T02:58:45.306Z,93656.66
2023-04-15T03:01:12.261Z,93660.72
2023-04-15T03:03:38.936Z,93656.66
2023-04-15T03:06:05.863Z,93651.94
2023-04-15T03:08:32.484Z,93659.97
2023-04-15T03:11:00.925Z,93658.81
2023-04-15T03:13:27.718Z,93663.06
2023-04-15T03:15:54.400Z,93655.94
2023-04-15T03:18:21.650Z,93669.22
2023-04-15T03:20:48.228Z,93658.09
2023-04-15T03:23:14.988Z,93660.00
2023-04-15T03:25:42.130Z,93657.13
2023-04-15T03:28:08.764Z,93659.00
2023-04-15T03:30:35.406Z,93652.38
2023-04-15T03:33:02.135Z,93657.59
2023-04-15T03:35:28.756Z,93653.56
2023-04-15T03:37:55.685Z,93651.22
2023-04-15T03:40:22.608Z,93650.00
2023-04-15T03:42:49.240Z,93649.31
2023-04-15T03:45:16.111Z,93643.63
2023-04-15T03:47:42.784Z,93650.25
2023-04-15T03:50:09.775Z,93641.50
2023-04-15T03:52:36.358Z,93649.31
2023-04-15T03:55:02.958Z,93650.69
2023-04-15T03:57:29.734Z,93653.53
2023-04-15T03:59:56.304Z,93649.50
2023-04-15T04:02:23.428Z,93652.56
2023-04-15T04:04:50.821Z,93652.56
2023-04-15T04:07:18.001Z,93651.16
2023-04-15T04:09:46.639Z,93649.03
2023-04-15T04:12:13.851Z,93648.34
2023-04-15T04:14:40.971Z,93646.91
2023-04-15T04:17:07.585Z,93657.09
2023-04-15T04:19:34.298Z,93654.69
2023-04-15T04:22:01.475Z,93651.84
2023-04-15T04:24:28.106Z,93640.72
2023-04-15T04:26:54.806Z,93650.88
2023-04-15T04:29:21.541Z,93651.59
2023-04-15T04:31:48.990Z,93650.66
2023-04-15T04:34:16.419Z,93657.75
2023-04-15T04:36:43.128Z,93669.34
2023-04-15T04:39:09.717Z,93662.97
2023-04-15T04:41:36.411Z,93670.53
2023-04-15T04:44:04.149Z,93671.94
2023-04-15T04:46:30.837Z,93671.44
2023-04-15T04:48:57.404Z,93667.41
2023-04-15T04:51:24.129Z,93670.03
2023-04-15T04:53:50.911Z,93669.78
2023-04-15T04:56:17.503Z,93675.94
2023-04-15T04:58:44.188Z,93668.59
2023-04-15T05:01:10.845Z,93677.13
2023-04-15T05:03:40.600Z,93677.81
2023-04-15T05:06:08.879Z,93683.22
2023-04-15T05:08:35.539Z,93679.47
2023-04-15T05:11:03.355Z,93687.97
2023-04-15T05:13:30.273Z,93683.75
2023-04-15T05:15:57.031Z,93671.66
2023-04-15T05:18:23.678Z,93673.09
2023-04-15T05:20:50.320Z,93679.69
2023-04-15T05:23:17.798Z,93669.28
2023-04-15T05:25:44.395Z,93674.50
2023-04-15T05:28:10.961Z,93671.91
2023-04-15T05:30:37.544Z,93675.94
2023-04-15T05:33:04.415Z,93677.31
2023-04-15T05:35:31.284Z,93681.38
2023-04-15T05:37:57.884Z,93680.63
2023-04-15T05:40:30.535Z,93675.94
2023-04-15T05:42:57.492Z,93687.03
2023-04-15T05:45:24.310Z,93683.22
2023-04-15T05:47:54.138Z,93681.63
2023-04-15T05:50:21.425Z,93690.13
2023-04-15T05:52:48.053Z,93684.22
2023-04-15T05:55:14.784Z,93679.94
2023-04-15T05:57:41.510Z,93679.97
2023-04-15T06:00:08.515Z,93683.78
2023-04-15T06:02:35.167Z,93685.19
2023-04-15T06:05:02.099Z,93688.28
2023-04-15T06:07:28.856Z,93691.38
2023-04-15T06:09:55.506Z,93689.97
2023-04-15T06:12:22.094Z,93683.53
2023-04-15T06:14:48.684Z,93690.91
2023-04-15T06:17:15.277Z,93696.38
2023-04-15T06:19:41.829Z,93693.50
2023-04-15T06:22:09.172Z,93695.69
2023-04-15T06:24:37.203Z,93689.31
2023-04-15T06:27:03.827Z,93689.03
2023-04-15T06:29:30.660Z,93690.50
2023-04-15T06:31:57.348Z,93690.72
2023-04-15T06:34:24.027Z,93692.38
2023-04-15T06:36:50.945Z,93695.25
2023-04-15T06:39:17.533Z,93697.41
2023-04-15T06:41:44.185Z,93691.47
2023-04-15T06:44:11.472Z,93696.94
2023-04-15T06:46:38.089Z,93703.78
2023-04-15T06:49:05.444Z,93695.50
2023-04-15T06:51:32.829Z,93702.13
2023-04-15T06:53:59.391Z,93702.16
2023-04-15T06:56:26.094Z,93696.47
2023-04-15T06:58:52.880Z,93694.56
2023-04-15T07:01:20.084Z,93699.56
2023-04-15T07:03:46.963Z,93706.19
2023-04-15T07:06:13.560Z,93692.22
2023-04-15T07:08:40.292Z,93687.03
2023-04-15T07:11:07.531Z,93689.38
2023-04-15T07:13:34.666Z,93696.00
2023-04-15T07:16:01.391Z,93698.34
2023-04-15T07:18:27.984Z,93691.75
2023-04-15T07:20:54.946Z,93690.78
2023-04-15T07:23:21.663Z,93683.47
2023-04-15T07:25:48.378Z,93680.38
2023-04-15T07:28:15.277Z,93682.78
2023-04-15T07:30:41.876Z,93681.13
2023-04-15T07:33:08.543Z,93684.69
2023-04-15T07:35:35.168Z,93680.41
2023-04-15T07:38:01.782Z,93686.09
2023-04-15T07:40:28.484Z,93674.72
2023-04-15T07:42:57.294Z,93684.91
2023-04-15T07:45:24.089Z,93679.44
2023-04-15T07:47:53.451Z,93682.78
2023-04-15T07:50:20.097Z,93684.19
2023-04-15T07:52:47.049Z,93687.72
2023-04-15T07:55:19.387Z,93686.81
2023-04-15T07:57:47.327Z,93681.78
2023-04-15T08:00:14.781Z,93690.56
2023-04-15T08:02:42.806Z,93680.13
2023-04-15T08:05:10.836Z,93678.22
2023-04-15T08:07:38.528Z,93681.31
2023-04-15T08:10:05.937Z,93683.13
2023-04-15T08:12:32.783Z,93681.00
2023-04-15T08:14:59.389Z,93679.34
2023-04-15T08:17:26.325Z,93683.63
2023-04-15T08:19:53.856Z,93684.78
2023-04-15T08:22:21.325Z,93684.25
2023-04-15T08:24:48.970Z,93684.00
2023-04-15T08:27:15.626Z,93684.63
2023-04-15T08:29:42.227Z,93683.22
2023-04-15T08:32:09.627Z,93685.81
2023-04-15T08:34:36.366Z,93683.47
2023-04-15T08:37:02.913Z,93692.28
2023-04-15T08:39:29.510Z,93691.53
2023-04-15T08:42:04.089Z,93683.41
2023-04-15T08:44:33.450Z,93677.91
2023-04-15T08:47:03.605Z,93682.38
2023-04-15T08:49:30.683Z,93687.16
2023-04-15T08:52:00.447Z,93680.63
2023-04-15T08:54:28.225Z,93686.81
2023-04-15T08:56:55.019Z,93678.69
2023-04-15T08:59:22.283Z,93679.59
2023-04-15T09:01:51.381Z,93678.06
2023-04-15T09:04:18.523Z,93683.94
2023-04-15T09:06:45.202Z,93681.66
2023-04-15T09:09:14.509Z,93682.97
2023-04-15T09:11:42.197Z,93672.75
2023-04-15T09:14:08.940Z,93680.34
2023-04-15T09:17:01.480Z,93676.69
2023-04-15T09:19:28.329Z,93689.28
2023-04-15T09:21:59.630Z,93684.78
2023-04-15T09:24:37.440Z,93688.22
2023-04-15T09:27:04.296Z,93688.59
2023-04-15T09:29:31.437Z,93690.06
2023-04-15T09:32:10.265Z,93688.78
2023-04-15T09:34:37.969Z,93697.13
2023-04-15T09:40:05.190Z,93695.63
2023-04-15T09:42:32.574Z,93692.84
2023-04-15T09:45:09.609Z,93702.06
2023-04-15T09:47:36.385Z,93701.91
2023-04-15T09:50:03.641Z,93697.94
2023-04-15T09:52:30.708Z,93698.38
2023-04-15T09:54:58.834Z,93697.56
2023-04-15T09:57:33.793Z,93705.25
2023-04-15T10:00:01.700Z,93711.06
2023-04-15T10:06:19.466Z,93705.03
2023-04-15T10:08:48.041Z,93709.06
2023-04-15T10:11:15.090Z,93715.09
2023-04-15T10:13:46.193Z,93711.44
2023-04-15T10:16:29.158Z,93710.09
2023-04-15T10:18:58.901Z,93712.38
2023-04-15T10:22:07.296Z,93708.66
2023-04-15T10:24:34.502Z,93714.97
2023-04-15T10:27:07.828Z,93718.41
2023-04-15T10:29:59.072Z,93713.94
2023-04-15T10:32:53.802Z,93721.69
2023-04-15T10:38:39.630Z,93715.09
2023-04-15T10:41:28.011Z,93723.25
2023-04-15T10:47:29.175Z,93728.53
2023-04-15T10:53:43.920Z,93730.59
2023-04-15T11:01:07.758Z,93740.75
2023-04-15T11:03:45.688Z,93728.22
2023-04-15T11:06:15.563Z,93733.47
2023-04-15T11:12:45.503Z,93743.19
2023-04-15T11:15:40.771Z,93742.66
2023-04-15T11:22:20.652Z,93739.31
2023-04-15T11:39:35.004Z,93754.00
2023-04-15T11:42:01.942Z,93781.53
2023-04-15T11:44:28.828Z,93783.50
2023-04-15T11:46:56.008Z,93785.56
2023-04-15T11:49:30.728Z,93798.09
2023-04-15T11:51:57.429Z,93802.63
2023-04-15T11:54:24.063Z,93807.75
2023-04-15T11:56:53.064Z,93815.94
2023-04-15T11:59:19.851Z,93814.75
2023-04-15T12:01:47.871Z,93811.50
2023-04-15T12:04:17.722Z,93821.56
2023-04-15T12:06:45.392Z,93823.78
2023-04-15T12:09:18.462Z,93826.31
2023-04-15T12:11:49.106Z,93832.44
2023-04-15T12:14:15.698Z,93834.84
2023-04-15T12:16:50.067Z,93836.25
2023-04-15T12:19:27.628Z,93834.16
2023-04-15T12:22:01.976Z,93837.56
2023-04-15T12:24:32.264Z,93819.44
2023-04-15T12:27:22.006Z,93819.25
2023-04-15T12:29:48.645Z,93821.88
2023-04-15T12:32:16.732Z,93818.38
2023-04-15T12:34:49.752Z,93823.81
2023-04-15T12:37:16.982Z,93813.50
2023-04-15T12:39:45.352Z,93824.66
2023-04-15T12:42:13.018Z,93824.81
2023-04-15T12:44:40.198Z,93820.81
2023-04-15T12:47:07.994Z,93822.88
2023-04-15T12:49:34.689Z,93828.28
2023-04-15T12:52:02.527Z,93829.34
2023-04-15T12:54:31.428Z,93827.78
2023-04-15T12:56:59.009Z,93827.50
2023-04-15T12:59:26.044Z,93835.09
2023-04-15T13:01:54.013Z,93838.25
2023-04-15T13:04:22.136Z,93839.41
2023-04-15T13:06:49.251Z,93837.91
2023-04-15T13:09:15.995Z,93836.47
2023-04-15T13:11:42.931Z,93845.16
2023-04-15T13:14:11.755Z,93844.47
2023-04-15T13:16:41.651Z,93841.34
2023-04-15T13:19:08.594Z,93853.38
2023-04-15T13:21:36.126Z,93855.00
2023-04-15T13:24:03.889Z,93854.16
2023-04-15T13:26:31.835Z,93862.03
2023-04-15T13:28:58.653Z,93862.88
2023-04-15T13:31:25.615Z,93867.69
2023-04-15T13:33:52.207Z,93876.09
2023-04-15T13:36:18.906Z,93878.19
2023-04-15T13:38:45.742Z,93871.97
2023-04-15T13:41:12.301Z,93872.94
2023-04-15T13:43:38.861Z,93872.50
2023-04-15T13:46:05.838Z,93883.19
2023-04-15T13:48:32.540Z,93883.41
2023-04-15T13:50:59.087Z,93886.97
2023-04-15T13:53:33.860Z,93887.78
2023-04-15T13:56:06.761Z,93895.41
2023-04-15T13:58:33.456Z,93889.38
2023-04-15T14:01:00.089Z,93898.88
2023-04-15T14:03:26.857Z,93902.00
2023-04-15T14:05:56.154Z,93908.31
2023-04-15T14:08:23.275Z,93908.16
2023-04-15T14:10:49.879Z,93909.75
2023-04-15T14:13:16.901Z,93908.88
2023-04-15T14:15:43.459Z,93909.31
2023-04-15T14:18:10.045Z,93910.44
2023-04-15T14:20:36.642Z,93909.31
2023-04-15T14:23:03.167Z,93914.47
2023-04-15T14:25:33.793Z,93916.38
2023-04-15T14:28:01.534Z,93920.59
2023-04-15T14:30:28.099Z,93910.59
2023-04-15T14:32:54.903Z,93912.47
2023-04-15T14:35:21.597Z,93911.75
2023-04-15T14:37:48.303Z,93910.94
2023-04-15T14:40:14.964Z,93924.63
2023-04-15T14:42:41.619Z,93917.53
2023-04-15T14:45:08.917Z,93927.19
2023-04-15T14:47:36.080Z,93926.31
2023-04-15T14:50:03.100Z,93943.56
2023-04-15T14:52:33.019Z,93934.00
2023-04-15T14:54:59.545Z,93941.16
2023-04-15T14:57:26.143Z,93939.97
2023-04-15T14:59:56.772Z,93943.19
2023-04-15T15:02:37.221Z,93955.81
2023-04-15T15:05:08.322Z,93966.78
2023-04-15T15:07:37.353Z,93958.13
2023-04-15T15:10:04.619Z,93966.88
2023-04-15T15:12:31.266Z,93970.53
2023-04-15T15:14:57.921Z,93973.38
2023-04-15T15:17:24.709Z,93976.34
2023-04-15T15:19:51.633Z,93981.03
2023-04-15T15:22:20.777Z,93985.09
2023-04-15T15:24:47.999Z,93986.81
2023-04-15T15:27:14.846Z,93991.22
2023-04-15T15:29:41.501Z,93998.84
2023-04-15T15:32:08.267Z,94010.84
2023-04-15T15:42:33.338Z,94034.06
2023-04-15T15:45:01.801Z,94043.13
2023-04-15T15:51:01.589Z,94047.44
2023-04-15T15:53:29.227Z,94062.94
2023-04-15T15:56:06.814Z,94063.28
2023-04-15T16:06:06.142Z,94074.50
2023-04-15T16:08:43.705Z,94073.31
2023-04-15T16:11:10.763Z,94079.97
2023-04-15T16:13:45.318Z,94088.47
2023-04-15T16:16:13.873Z,94086.13
2023-04-15T16:19:04.991Z,94090.63
2023-04-15T16:21:41.841Z,94099.47
2023-04-15T16:24:11.095Z,94099.47
2023-04-15T16:26:45.155Z,94106.09
2023-04-15T16:29:12.893Z,94100.16
2023-04-15T16:32:03.284Z,94106.59
2023-04-15T16:37:35.154Z,94102.78
2023-04-15T16:43:41.004Z,94105.44
2023-04-15T16:46:09.259Z,94106.84
2023-04-15T16:48:39.959Z,94114.66
2023-04-15T16:51:32.353Z,94115.16
2023-04-15T16:54:21.566Z,94115.13
2023-04-15T16:57:24.691Z,94123.47
2023-04-15T17:03:55.374Z,94129.88
2023-04-15T17:06:56.831Z,94140.09
2023-04-15T17:09:58.426Z,94141.69
2023-04-15T17:13:10.233Z,94136.28
2023-04-15T17:15:42.672Z,94130.81
2023-04-15T17:18:12.402Z,94139.75
2023-04-15T17:20:39.424Z,94138.81
2023-04-15T17:23:06.084Z,94144.78
2023-04-15T17:25:32.685Z,94148.59
2023-04-15T17:27:59.271Z,94153.88
2023-04-15T17:30:25.864Z,94153.41
2023-04-15T17:32:52.564Z,94159.56
2023-04-15T17:35:19.354Z,94167.81
2023-04-15T17:37:46.474Z,94168.09
2023-04-15T17:40:13.949Z,94172.63
2023-04-15T17:42:41.428Z,94180.00
2023-04-15T17:45:08.616Z,94171.22
2023-04-15T17:47:35.333Z,94182.13
2023-04-15T17:50:01.934Z,94172.38
2023-04-15T17:52:28.921Z,94174.53
2023-04-15T17:54:55.926Z,94176.91
2023-04-15T17:57:22.613Z,94180.00
2023-04-15T17:59:49.356Z,94176.94
2023-04-15T18:02:16.075Z,94184.03
2023-04-15T18:04:43.803Z,94187.38
2023-04-15T18:07:10.874Z,94192.63
2023-04-15T18:09:37.677Z,94200.69
2023-04-15T18:12:07.657Z,94207.09
2023-04-15T18:14:35.308Z,94208.03
2023-04-15T18:17:04.935Z,94219.66
2023-04-15T18:19:31.871Z,94220.56
2023-04-15T18:22:00.463Z,94227.34
2023-04-15T18:24:28.937Z,94231.97
2023-04-15T18:26:56.504Z,94232.22
2023-04-15T18:29:23.328Z,94240.06
2023-04-15T18:31:50.131Z,94246.47
2023-04-15T18:34:16.844Z,94250.03
2023-04-15T18:36:43.467Z,94257.88
2023-04-15T18:39:10.499Z,94259.06
2023-04-15T18:41:37.230Z,94264.28
2023-04-15T18:44:03.851Z,94259.53
2023-04-15T18:46:30.503Z,94270.69
2023-04-15T18:48:57.099Z,94260.50
2023-04-15T18:51:23.921Z,94263.13
2023-04-15T18:53:50.549Z,94279.25
2023-04-15T18:56:17.431Z,94274.97
2023-04-15T18:59:28.173Z,94281.84
2023-04-15T19:01:31.640Z,94272.81
2023-04-15T19:03:58.365Z,94286.38
2023-04-15T19:06:25.121Z,94288.28
2023-04-15T19:08:52.081Z,94298.25
2023-04-15T19:11:18.951Z,94299.91
2023-04-15T19:13:45.745Z,94309.38
2023-04-15T19:16:12.452Z,94304.16
2023-04-15T19:18:39.872Z,94317.22
2023-04-15T19:21:06.556Z,94320.53
2023-04-15T19:23:33.193Z,94320.78
2023-04-15T19:25:59.836Z,94320.78
2023-04-15T19:28:28.311Z,94313.41
2023-04-15T19:30:55.429Z,94321.44
2023-04-15T19:33:22.393Z,94318.84
2023-04-15T19:35:50.170Z,94329.09
2023-04-15T19:38:17.353Z,94319.09
2023-04-15T19:40:44.270Z,94329.78
2023-04-15T19:43:10.929Z,94333.59
2023-04-15T19:45:37.676Z,94326.84
2023-04-15T19:48:06.188Z,94333.78
2023-04-15T19:50:33.017Z,94330.59
2023-04-15T19:52:59.580Z,94329.16
2023-04-15T19:55:26.205Z,94342.38
2023-04-15T19:57:52.764Z,94330.84
2023-04-15T20:00:19.485Z,94345.38
2023-04-15T20:02:46.448Z,94343.91
2023-04-15T20:05:14.009Z,94350.78
2023-04-15T20:07:42.619Z,94348.91
2023-04-15T20:10:13.218Z,94354.28
2023-04-15T20:12:50.288Z,94346.97
2023-04-15T20:15:23.721Z,94349.00
2023-04-15T20:17:50.780Z,94357.75
2023-04-15T20:20:17.412Z,94360.81
2023-04-15T20:22:44.286Z,94355.19
2023-04-15T20:25:10.902Z,94358.09
2023-04-15T20:27:37.530Z,94366.94
2023-04-15T20:30:07.524Z,94372.47
2023-04-15T20:32:35.912Z,94378.81
2023-04-15T20:35:03.830Z,94378.13
2023-04-15T20:37:33.188Z,94373.84
2023-04-15T20:40:00.805Z,94366.97
2023-04-15T20:42:27.393Z,94388.78
2023-04-15T20:44:54.000Z,94382.00
2023-04-15T20:47:20.894Z,94385.50
2023-04-15T20:49:47.537Z,94384.00
2023-04-15T20:52:14.294Z,94392.28
2023-04-15T20:54:41.021Z,94390.63
2023-04-15T20:57:07.707Z,94390.38
2023-04-15T20:59:34.940Z,94397.63
2023-04-15T21:02:04.464Z,94398.97
2023-04-15T21:04:31.305Z,94406.81
2023-04-15T21:06:58.348Z,94413.03
2023-04-15T21:09:25.895Z,94407.03
2023-04-15T21:12:01.016Z,94407.41
2023-04-15T21:14:28.627Z,94412.41
2023-04-15T21:16:57.195Z,94416.41
2023-04-15T21:19:23.778Z,94409.63
2023-04-15T21:21:50.372Z,94409.00
2023-04-15T21:24:16.946Z,94418.56
2023-04-15T21:26:43.530Z,94417.22
2023-04-15T21:29:11.642Z,94420.91
2023-04-15T21:31:39.094Z,94417.13
2023-04-15T21:34:05.858Z,94424.38
2023-04-15T21:36:32.675Z,94429.44
2023-04-15T21:38:59.860Z,94425.75
2023-04-15T21:41:27.172Z,94431.25
2023-04-15T21:43:54.111Z,94429.13
2023-04-15T21:46:24.470Z,94427.88
2023-04-15T21:48:55.670Z,94430.03
2023-04-15T21:51:22.643Z,94435.06
2023-04-15T21:53:49.213Z,94440.00
2023-04-15T21:56:15.975Z,94437.00
2023-04-15T21:58:42.997Z,94437.31
2023-04-15T22:01:09.613Z,94443.84
2023-04-15T22:03:36.474Z,94441.41
2023-04-15T22:06:03.814Z,94436.47
2023-04-15T22:08:36.121Z,94438.44
2023-04-15T22:11:08.817Z,94450.53
2023-04-15T22:13:35.754Z,94455.06
2023-04-15T22:16:03.072Z,94452.34
2023-04-15T22:18:29.671Z,94451.47
2023-04-15T22:20:56.484Z,94445.34
2023-04-15T22:23:23.036Z,94442.56
2023-04-15T22:25:49.563Z,94447.38
2023-04-15T22:28:16.337Z,94453.84
2023-04-15T22:30:43.165Z,94450.41
2023-04-15T22:33:10.051Z,94452.16
2023-04-15T22:35:39.271Z,94456.63
2023-04-15T22:38:06.671Z,94460.63
2023-04-15T22:40:33.580Z,94469.81
2023-04-15T22:43:01.038Z,94470.50
2023-04-15T22:45:27.885Z,94478.97
2023-04-15T22:47:54.751Z,94475.47
2023-04-15T22:50:21.709Z,94472.25
2023-04-15T22:52:48.697Z,94480.06
2023-04-15T22:55:16.134Z,94483.47
2023-04-15T22:57:42.761Z,94476.91
2023-04-15T23:00:09.899Z,94477.56
2023-04-15T23:02:36.632Z,94475.56
2023-04-15T23:05:04.577Z,94470.72
2023-04-15T23:07:40.545Z,94475.22
2023-04-15T23:10:08.104Z,94471.28
2023-04-15T23:12:35.748Z,94470.44
2023-04-15T23:15:03.571Z,94472.56
2023-04-15T23:17:33.467Z,94474.69
2023-04-15T23:20:00.216Z,94479.97
2023-04-15T23:22:26.823Z,94483.75
2023-04-15T23:24:53.412Z,94479.78
2023-04-15T23:27:20.099Z,94481.47
2023-04-15T23:29:46.661Z,94484.41
2023-04-15T23:32:13.285Z,94485.72
2023-04-15T23:34:39.852Z,94487.38
2023-04-15T23:37:06.433Z,94487.22
2023-04-15T23:39:33.040Z,94486.28
2023-04-15T23:41:59.656Z,94475.16
2023-04-15T23:44:26.599Z,94486.69
2023-04-15T23:46:53.292Z,94482.50
2023-04-15T23:49:20.582Z,94483.81
2023-04-15T23:51:49.368Z,94486.91
2023-04-15T23:54:15.914Z,94490.00
2023-04-15T23:56:43.028Z,94479.75
2023-04-15T23:59:10.793Z,94487.63
